createdAt,value
2022-10-24T00:00:00.180Z,100.00
2022-10-24T00:02:27.340Z,100.00
2022-10-24T00:04:54.632Z,100.00
2022-10-24T00:07:21.604Z,100.00
2022-10-24T00:09:48.617Z,100.00
2022-10-24T00:12:15.790Z,100.00
2022-10-24T00:14:42.849Z,100.00
2022-10-24T00:17:09.897Z,100.00
2022-10-24T00:19:37.366Z,100.00
2022-10-24T00:22:04.833Z,100.00
2022-10-24T00:24:31.910Z,100.00
2022-10-24T00:26:58.945Z,100.00
2022-10-24T00:29:25.951Z,100.00
2022-10-24T00:31:53.221Z,100.00
2022-10-24T00:34:20.312Z,100.00
2022-10-24T00:36:47.279Z,100.00
2022-10-24T00:39:14.361Z,100.00
2022-10-24T00:41:42.860Z,100.00
2022-10-24T00:44:23.877Z,100.00
2022-10-24T00:46:50.913Z,100.00
2022-10-24T00:49:20.020Z,100.00
2022-10-24T00:51:48.409Z,100.00
2022-10-24T00:54:15.711Z,100.00
2022-10-24T00:56:47.392Z,100.00
2022-10-24T00:59:14.997Z,100.00
2022-10-24T01:01:43.399Z,100.00
2022-10-24T01:04:12.667Z,100.00
2022-10-24T01:07:12.435Z,100.00
2022-10-24T01:09:39.428Z,100.00
2022-10-24T01:12:20.678Z,100.00
2022-10-24T01:14:56.157Z,100.00
2022-10-24T01:17:32.464Z,100.00
2022-10-24T01:20:08.800Z,100.00
2022-10-24T01:22:54.355Z,100.00
2022-10-24T01:25:30.553Z,100.00
2022-10-24T01:28:00.680Z,100.00
2022-10-24T01:30:29.423Z,100.00
2022-10-24T01:33:28.899Z,100.00
2022-10-24T01:36:03.244Z,100.00
2022-10-24T01:38:45.650Z,100.00
2022-10-24T01:41:14.255Z,100.00
2022-10-24T01:43:49.678Z,100.00
2022-10-24T01:46:22.768Z,100.00
2022-10-24T01:48:53.000Z,100.00
2022-10-24T01:51:22.258Z,100.00
2022-10-24T01:53:50.248Z,100.00
2022-10-24T01:56:17.435Z,100.00
2022-10-24T01:58:45.604Z,100.00
2022-10-24T02:01:16.132Z,100.00
2022-10-24T02:03:50.012Z,100.00
2022-10-24T02:06:30.028Z,100.00
2022-10-24T02:09:01.307Z,100.00
2022-10-24T02:11:28.407Z,100.00
2022-10-24T02:13:57.802Z,100.00
2022-10-24T02:16:25.034Z,100.00
2022-10-24T02:18:53.618Z,100.00
2022-10-24T02:21:44.689Z,100.00
2022-10-24T02:24:14.726Z,100.00
2022-10-24T02:26:47.277Z,100.00
2022-10-24T02:29:16.089Z,100.00
2022-10-24T02:31:44.672Z,100.00
2022-10-24T02:36:45.592Z,100.00
2022-10-24T02:39:13.468Z,100.00
2022-10-24T02:41:42.420Z,100.00
2022-10-24T02:44:10.825Z,100.00
2022-10-24T02:46:38.719Z,100.00
2022-10-24T02:49:05.912Z,100.00
2022-10-24T02:51:35.139Z,100.00
2022-10-24T02:54:02.896Z,100.00
2022-10-24T02:56:30.353Z,100.00
2022-10-24T02:58:57.449Z,100.00
2022-10-24T03:01:24.613Z,100.00
2022-10-24T03:03:51.744Z,100.00
2022-10-24T03:06:18.692Z,100.00
2022-10-24T03:08:45.834Z,100.00
2022-10-24T03:11:12.805Z,100.00
2022-10-24T03:13:39.853Z,100.00
2022-10-24T03:16:09.089Z,100.00
2022-10-24T03:18:38.756Z,100.00
2022-10-24T03:21:05.812Z,100.00
2022-10-24T03:23:32.848Z,100.00
2022-10-24T03:25:59.939Z,100.00
2022-10-24T03:28:27.138Z,100.00
2022-10-24T03:30:54.719Z,100.00
2022-10-24T03:33:22.801Z,100.00
2022-10-24T03:35:53.736Z,100.00
2022-10-24T03:38:21.552Z,100.00
2022-10-24T03:40:48.908Z,100.00
2022-10-24T03:43:16.084Z,100.00
2022-10-24T03:45:43.124Z,100.00
2022-10-24T03:48:11.013Z,100.00
2022-10-24T03:50:38.061Z,100.00
2022-10-24T03:53:05.133Z,100.00
2022-10-24T03:55:32.171Z,100.00
2022-10-24T03:57:59.323Z,100.00
2022-10-24T04:00:28.987Z,100.00
2022-10-24T04:02:56.298Z,100.00
2022-10-24T04:05:23.368Z,100.00
2022-10-24T04:07:50.451Z,100.00
2022-10-24T04:10:17.720Z,100.00
2022-10-24T04:12:44.697Z,100.00
2022-10-24T04:15:11.785Z,100.00
2022-10-24T04:17:38.859Z,100.00
2022-10-24T04:20:06.568Z,100.00
2022-10-24T04:22:33.794Z,100.00
2022-10-24T04:25:00.948Z,100.00
2022-10-24T04:27:28.023Z,100.00
2022-10-24T04:29:55.107Z,100.00
2022-10-24T04:32:22.169Z,100.00
2022-10-24T04:34:49.276Z,100.00
2022-10-24T04:37:16.441Z,100.00
2022-10-24T04:39:43.609Z,100.00
2022-10-24T04:42:10.657Z,100.00
2022-10-24T04:44:37.719Z,100.00
2022-10-24T04:47:04.729Z,100.00
2022-10-24T04:49:31.858Z,100.00
2022-10-24T04:51:58.847Z,100.00
2022-10-24T04:54:25.943Z,100.00
2022-10-24T04:56:53.138Z,100.00
2022-10-24T04:59:20.172Z,100.00
2022-10-24T05:01:47.480Z,100.00
2022-10-24T05:04:14.727Z,100.00
2022-10-24T05:06:44.230Z,100.00
2022-10-24T05:09:12.711Z,100.00
2022-10-24T05:11:39.827Z,100.00
2022-10-24T05:14:07.356Z,100.00
2022-10-24T05:16:34.387Z,100.00
2022-10-24T05:19:01.411Z,100.00
2022-10-24T05:21:28.451Z,100.00
2022-10-24T05:23:55.731Z,100.00
2022-10-24T05:26:22.712Z,100.00
2022-10-24T05:28:52.425Z,100.00
2022-10-24T05:31:20.042Z,100.00
2022-10-24T05:33:47.110Z,100.00
2022-10-24T05:36:14.156Z,100.00
2022-10-24T05:38:41.317Z,100.00
2022-10-24T05:41:08.353Z,100.00
2022-10-24T05:43:35.391Z,100.00
2022-10-24T05:46:02.596Z,100.00
2022-10-24T05:48:29.632Z,100.00
2022-10-24T05:50:59.649Z,100.00
2022-10-24T05:53:26.803Z,100.00
2022-10-24T05:55:53.921Z,100.00
2022-10-24T05:58:22.267Z,100.00
2022-10-24T06:00:53.549Z,100.00
2022-10-24T06:03:21.390Z,100.00
2022-10-24T06:05:48.695Z,100.00
2022-10-24T06:08:15.973Z,100.00
2022-10-24T06:10:45.927Z,100.00
2022-10-24T06:13:13.038Z,100.00
2022-10-24T06:15:41.497Z,100.00
2022-10-24T06:18:08.755Z,100.00
2022-10-24T06:20:36.521Z,100.00
2022-10-24T06:23:03.600Z,100.00
2022-10-24T06:25:30.656Z,100.00
2022-10-24T06:27:57.890Z,100.00
2022-10-24T06:30:24.976Z,100.00
2022-10-24T06:32:52.212Z,100.00
2022-10-24T06:35:19.288Z,100.00
2022-10-24T06:37:48.200Z,100.00
2022-10-24T06:40:16.565Z,100.00
2022-10-24T06:42:43.980Z,100.00
2022-10-24T06:45:11.077Z,100.00
2022-10-24T06:47:38.289Z,100.00
2022-10-24T06:50:05.839Z,100.00
2022-10-24T06:52:32.852Z,100.00
2022-10-24T06:54:59.990Z,100.00
2022-10-24T06:57:26.978Z,100.00
2022-10-24T06:59:53.975Z,100.00
2022-10-24T07:02:21.217Z,100.00
2022-10-24T07:04:48.371Z,100.00
2022-10-24T07:07:16.353Z,100.00
2022-10-24T07:09:43.616Z,100.00
2022-10-24T07:12:11.193Z,100.00
2022-10-24T07:14:38.432Z,100.00
2022-10-24T07:17:05.505Z,98.60
2022-10-24T07:19:35.225Z,97.74
2022-10-24T07:22:04.344Z,96.94
2022-10-24T07:24:31.460Z,95.92
2022-10-24T07:26:58.552Z,95.87
2022-10-24T07:29:25.600Z,94.98
2022-10-24T07:31:52.841Z,94.22
2022-10-24T07:34:19.833Z,92.68
2022-10-24T07:36:46.909Z,92.42
2022-10-24T07:39:14.038Z,92.94
2022-10-24T07:41:41.673Z,92.15
2022-10-24T07:44:09.121Z,92.22
2022-10-24T07:46:36.189Z,92.20
2022-10-24T07:49:03.693Z,91.21
2022-10-24T07:51:31.751Z,90.36
2022-10-24T07:53:59.139Z,90.06
2022-10-24T07:56:26.319Z,89.38
2022-10-24T07:58:53.408Z,87.64
2022-10-24T08:01:22.063Z,86.39
2022-10-24T08:03:49.435Z,85.02
2022-10-24T08:06:18.129Z,84.80
2022-10-24T08:08:45.155Z,83.82
2022-10-24T08:11:17.171Z,83.77
2022-10-24T08:13:44.590Z,83.62
2022-10-24T08:16:12.441Z,82.14
2022-10-24T08:18:39.928Z,82.94
2022-10-24T08:21:08.462Z,83.31
2022-10-24T08:23:36.473Z,83.32
2022-10-24T08:26:07.577Z,82.14
2022-10-24T08:28:35.089Z,82.15
2022-10-24T08:31:03.578Z,82.80
2022-10-24T08:33:31.063Z,82.49
2022-10-24T08:35:59.742Z,81.85
2022-10-24T08:38:27.140Z,81.30
2022-10-24T08:40:54.465Z,80.65
2022-10-24T08:43:22.215Z,81.33
2022-10-24T08:45:58.575Z,81.68
2022-10-24T08:48:31.564Z,82.75
2022-10-24T08:51:05.483Z,85.09
2022-10-24T08:53:32.877Z,85.83
2022-10-24T08:56:01.399Z,85.74
2022-10-24T08:58:37.678Z,86.46
2022-10-24T09:01:17.466Z,87.87
2022-10-24T09:03:56.881Z,88.86
2022-10-24T09:06:31.241Z,89.77
2022-10-24T09:09:04.790Z,92.35
2022-10-24T09:11:44.845Z,92.97
2022-10-24T09:14:15.127Z,94.94
2022-10-24T09:16:45.646Z,95.28
2022-10-24T09:19:20.761Z,94.99
2022-10-24T09:21:48.726Z,94.07
2022-10-24T09:24:35.766Z,92.46
2022-10-24T09:27:05.654Z,90.28
2022-10-24T09:29:34.013Z,86.85
2022-10-24T09:32:02.249Z,83.87
2022-10-24T09:34:29.565Z,80.91
2022-10-24T09:36:56.826Z,80.19
2022-10-24T09:39:26.316Z,79.50
2022-10-24T09:41:53.767Z,79.48
2022-10-24T09:44:32.127Z,79.64
2022-10-24T09:47:00.522Z,78.28
2022-10-24T09:49:36.025Z,77.42
2022-10-24T09:52:20.022Z,76.95
2022-10-24T09:55:02.987Z,76.44
2022-10-24T09:57:39.684Z,75.92
2022-10-24T10:00:19.834Z,77.38
2022-10-24T10:03:02.156Z,75.50
2022-10-24T10:05:44.832Z,73.82
2022-10-24T10:08:36.887Z,72.57
2022-10-24T10:11:10.963Z,73.01
2022-10-24T10:13:52.905Z,73.24
2022-10-24T10:16:28.152Z,73.81
2022-10-24T10:19:13.552Z,73.99
2022-10-24T10:22:04.506Z,73.72
2022-10-24T10:24:43.495Z,72.34
2022-10-24T10:27:40.649Z,72.53
2022-10-24T10:30:07.993Z,72.19
2022-10-24T10:32:51.769Z,72.12
2022-10-24T10:35:28.017Z,73.42
2022-10-24T10:38:09.584Z,71.36
2022-10-24T10:41:02.193Z,71.27
2022-10-24T10:43:52.707Z,70.79
2022-10-24T10:46:28.103Z,70.40
2022-10-24T10:49:00.316Z,70.30
2022-10-24T10:51:33.749Z,70.33
2022-10-24T10:54:22.345Z,69.81
2022-10-24T10:56:56.854Z,69.26
2022-10-24T10:59:42.404Z,69.72
2022-10-24T11:02:43.372Z,68.76
2022-10-24T11:05:55.455Z,68.73
2022-10-24T11:09:14.004Z,68.37
2022-10-24T11:12:10.183Z,68.94
2022-10-24T11:14:50.164Z,68.73
2022-10-24T11:17:25.084Z,67.75
2022-10-24T11:20:17.862Z,68.06
2022-10-24T11:22:53.564Z,67.89
2022-10-24T11:25:28.155Z,68.24
2022-10-24T11:28:21.820Z,67.32
2022-10-24T11:31:46.526Z,66.02
2022-10-24T11:34:20.618Z,66.61
2022-10-24T11:37:01.157Z,66.26
2022-10-24T11:39:44.434Z,65.19
2022-10-24T11:42:33.979Z,65.55
2022-10-24T11:45:11.993Z,65.48
2022-10-24T11:48:11.074Z,65.09
2022-10-24T11:50:54.111Z,64.72
2022-10-24T11:53:33.906Z,65.32
2022-10-24T11:56:30.907Z,64.16
2022-10-24T11:59:07.959Z,63.90
2022-10-24T12:02:05.018Z,63.33
2022-10-24T12:05:00.776Z,63.37
2022-10-24T12:08:06.267Z,65.06
2022-10-24T12:11:03.918Z,62.49
2022-10-24T12:13:46.264Z,62.96
2022-10-24T12:16:39.964Z,63.86
2022-10-24T12:19:15.474Z,62.95
2022-10-24T12:21:48.598Z,62.51
2022-10-24T12:24:27.442Z,61.02
2022-10-24T12:26:58.381Z,62.59
2022-10-24T12:29:27.413Z,63.86
2022-10-24T12:31:54.989Z,64.29
2022-10-24T12:34:23.124Z,63.98
2022-10-24T12:37:26.373Z,63.68
2022-10-24T12:40:01.040Z,63.60
2022-10-24T12:42:51.879Z,64.43
2022-10-24T12:45:29.983Z,64.35
2022-10-24T12:47:57.481Z,64.26
2022-10-24T12:50:26.291Z,63.96
2022-10-24T12:52:56.816Z,64.06
2022-10-24T12:55:35.989Z,64.57
2022-10-24T12:58:23.698Z,64.42
2022-10-24T13:00:57.285Z,65.25
2022-10-24T13:03:43.533Z,65.01
2022-10-24T13:06:16.978Z,64.98
2022-10-24T13:08:54.959Z,65.71
2022-10-24T13:11:42.473Z,65.92
2022-10-24T13:14:15.568Z,66.01
2022-10-24T13:17:21.490Z,66.93
2022-10-24T13:20:03.801Z,66.98
2022-10-24T13:22:36.277Z,67.18
2022-10-24T13:25:42.653Z,68.11
2022-10-24T13:28:24.752Z,67.02
2022-10-24T13:31:17.873Z,66.66
2022-10-24T13:33:45.889Z,67.54
2022-10-24T13:36:27.945Z,68.26
2022-10-24T13:39:01.804Z,68.22
2022-10-24T13:42:01.648Z,68.07
2022-10-24T13:44:44.674Z,69.21
2022-10-24T13:47:14.947Z,69.46
2022-10-24T13:50:03.680Z,69.94
2022-10-24T13:52:53.211Z,69.93
2022-10-24T13:55:25.988Z,69.50
2022-10-24T13:58:08.386Z,69.65
2022-10-24T14:00:39.203Z,69.40
2022-10-24T14:03:16.755Z,69.92
2022-10-24T14:05:48.609Z,69.79
2022-10-24T14:08:26.423Z,69.59
2022-10-24T14:10:55.166Z,68.45
2022-10-24T14:13:25.396Z,68.12
2022-10-24T14:15:59.909Z,68.33
2022-10-24T14:18:27.843Z,67.53
2022-10-24T14:20:57.938Z,66.93
2022-10-24T14:23:27.026Z,65.44
2022-10-24T14:26:17.116Z,64.80
2022-10-24T14:28:51.605Z,65.34
2022-10-24T14:31:25.534Z,64.58
2022-10-24T14:33:55.601Z,64.26
2022-10-24T14:36:31.586Z,64.92
2022-10-24T14:39:01.004Z,65.25
2022-10-24T14:41:34.126Z,65.78
2022-10-24T14:44:01.615Z,66.18
2022-10-24T14:46:43.031Z,67.26
2022-10-24T14:49:36.316Z,67.90
2022-10-24T14:52:13.130Z,68.00
2022-10-24T14:54:44.033Z,68.19
2022-10-24T14:57:20.724Z,68.69
2022-10-24T14:59:51.041Z,69.25
2022-10-24T15:02:42.078Z,69.38
2022-10-24T15:05:32.529Z,70.35
2022-10-24T15:08:24.713Z,69.99
2022-10-24T15:11:05.701Z,69.97
2022-10-24T15:13:45.187Z,71.10
2022-10-24T15:16:38.563Z,70.60
2022-10-24T15:19:21.335Z,71.39
2022-10-24T15:21:48.882Z,72.21
2022-10-24T15:24:24.022Z,72.45
2022-10-24T15:27:25.419Z,74.87
2022-10-24T15:29:52.868Z,76.46
2022-10-24T15:32:20.383Z,77.95
2022-10-24T15:34:47.738Z,78.03
2022-10-24T15:37:31.216Z,77.17
2022-10-24T15:40:20.772Z,79.04
2022-10-24T15:42:48.450Z,79.90
2022-10-24T15:45:16.949Z,80.49
2022-10-24T15:47:47.790Z,81.49
2022-10-24T15:50:32.926Z,82.01
2022-10-24T15:53:03.317Z,82.95
2022-10-24T15:55:32.913Z,83.30
2022-10-24T15:58:00.188Z,84.01
2022-10-24T16:00:27.558Z,84.08
2022-10-24T16:02:58.278Z,83.48
2022-10-24T16:05:30.037Z,83.63
2022-10-24T16:07:57.358Z,83.17
2022-10-24T16:10:24.792Z,83.29
2022-10-24T16:12:51.962Z,83.99
2022-10-24T16:15:19.124Z,85.03
2022-10-24T16:17:56.772Z,85.50
2022-10-24T16:20:24.117Z,85.50
2022-10-24T16:22:51.927Z,86.27
2022-10-24T16:25:25.282Z,86.30
2022-10-24T16:27:53.215Z,86.69
2022-10-24T16:30:23.350Z,86.65
2022-10-24T16:32:51.527Z,87.08
2022-10-24T16:35:28.685Z,87.84
2022-10-24T16:38:08.931Z,87.33
2022-10-24T16:43:30.093Z,86.80
2022-10-24T16:46:04.406Z,85.33
2022-10-24T16:51:44.007Z,83.67
2022-10-24T16:54:12.115Z,82.86
2022-10-24T16:56:42.113Z,84.59
2022-10-24T16:59:11.734Z,85.78
2022-10-24T17:01:50.292Z,87.15
2022-10-24T17:04:48.097Z,86.57
2022-10-24T17:07:15.849Z,86.67
2022-10-24T17:09:43.070Z,87.35
2022-10-24T17:12:11.098Z,87.50
2022-10-24T17:14:38.816Z,87.08
2022-10-24T17:17:06.316Z,87.90
2022-10-24T17:22:26.828Z,88.97
2022-10-24T17:25:03.691Z,89.49
2022-10-24T17:27:33.584Z,89.08
2022-10-24T17:30:03.570Z,89.49
2022-10-24T17:32:33.120Z,89.81
2022-10-24T17:35:00.661Z,90.43
2022-10-24T17:38:09.151Z,91.69
2022-10-24T17:40:44.770Z,92.70
2022-10-24T17:43:30.370Z,92.28
2022-10-24T17:46:00.290Z,92.23
2022-10-24T17:48:29.728Z,92.57
2022-10-24T17:50:58.448Z,92.61
2022-10-24T17:53:29.193Z,92.48
2022-10-24T17:55:56.624Z,92.55
2022-10-24T17:58:23.820Z,92.63
2022-10-24T18:00:51.057Z,92.79
2022-10-24T18:03:20.097Z,92.18
2022-10-24T18:05:50.189Z,90.89
2022-10-24T18:08:17.402Z,90.97
2022-10-24T18:10:44.689Z,91.18
2022-10-24T18:13:11.929Z,90.83
2022-10-24T18:15:39.169Z,92.01
2022-10-24T18:18:06.786Z,91.49
2022-10-24T18:20:34.752Z,91.80
2022-10-24T18:23:02.967Z,92.00
2022-10-24T18:25:30.387Z,91.65
2022-10-24T18:27:57.692Z,91.81
2022-10-24T18:30:25.122Z,92.64
2022-10-24T18:32:52.345Z,92.57
2022-10-24T18:35:22.248Z,92.58
2022-10-24T18:37:50.165Z,92.02
2022-10-24T18:40:17.690Z,92.57
2022-10-24T18:42:50.289Z,93.31
2022-10-24T18:45:23.917Z,93.42
2022-10-24T18:47:52.892Z,93.47
2022-10-24T18:50:23.273Z,92.82
2022-10-24T18:53:03.140Z,92.62
2022-10-24T18:55:32.489Z,93.37
2022-10-24T18:57:59.936Z,93.57
2022-10-24T19:00:30.615Z,93.77
2022-10-24T19:03:05.578Z,93.84
2022-10-24T19:05:42.067Z,93.03
2022-10-24T19:08:13.305Z,93.82
2022-10-24T19:10:41.080Z,94.21
2022-10-24T19:13:08.640Z,93.83
2022-10-24T19:15:39.885Z,93.82
2022-10-24T19:18:11.842Z,94.13
2022-10-24T19:20:39.630Z,94.34
2022-10-24T19:23:06.914Z,94.64
2022-10-24T19:25:34.386Z,94.60
2022-10-24T19:28:01.772Z,94.41
2022-10-24T19:30:29.211Z,93.82
2022-10-24T19:32:56.888Z,93.73
2022-10-24T19:35:24.319Z,92.86
2022-10-24T19:37:51.366Z,92.91
2022-10-24T19:40:18.514Z,93.48
2022-10-24T19:42:45.659Z,94.54
2022-10-24T19:45:13.035Z,94.46
2022-10-24T19:47:41.405Z,94.95
2022-10-24T19:50:08.884Z,94.88
2022-10-24T19:52:36.281Z,94.66
2022-10-24T19:55:04.051Z,94.61
2022-10-24T19:57:31.407Z,94.40
2022-10-24T19:59:58.576Z,94.94
2022-10-24T20:02:27.972Z,96.01
2022-10-24T20:04:55.246Z,94.53
2022-10-24T20:07:22.644Z,94.58
2022-10-24T20:09:51.016Z,94.61
2022-10-24T20:12:18.455Z,94.13
2022-10-24T20:14:45.736Z,92.50
2022-10-24T20:17:13.118Z,93.35
2022-10-24T20:19:40.379Z,94.31
2022-10-24T20:22:07.398Z,93.94
2022-10-24T20:24:34.624Z,94.63
2022-10-24T20:27:01.981Z,95.08
2022-10-24T20:29:29.288Z,96.26
2022-10-24T20:31:56.431Z,94.73
2022-10-24T20:34:23.528Z,96.03
2022-10-24T20:36:50.680Z,96.68
2022-10-24T20:39:20.902Z,96.39
2022-10-24T20:41:51.727Z,96.77
2022-10-24T20:44:22.333Z,96.49
2022-10-24T20:46:49.519Z,97.17
2022-10-24T20:49:16.603Z,97.16
2022-10-24T20:51:43.816Z,97.29
2022-10-24T20:54:11.209Z,97.07
2022-10-24T20:56:42.346Z,94.19
2022-10-24T20:59:12.544Z,93.54
2022-10-24T21:01:40.171Z,94.55
2022-10-24T21:04:07.686Z,93.87
2022-10-24T21:06:35.094Z,94.14
2022-10-24T21:09:05.200Z,94.82
2022-10-24T21:11:34.224Z,94.20
2022-10-24T21:14:04.365Z,94.53
2022-10-24T21:16:32.952Z,94.79
2022-10-24T21:19:00.830Z,95.36
2022-10-24T21:21:28.586Z,95.27
2022-10-24T21:24:02.384Z,94.90
2022-10-24T21:26:34.237Z,93.79
2022-10-24T21:29:09.180Z,94.48
2022-10-24T21:31:50.452Z,93.65
2022-10-24T21:34:19.042Z,92.66
2022-10-24T21:36:46.711Z,92.83
2022-10-24T21:39:15.400Z,93.39
2022-10-24T21:41:43.758Z,93.62
2022-10-24T21:44:11.028Z,92.90
2022-10-24T21:46:38.390Z,92.54
2022-10-24T21:49:05.598Z,93.70
2022-10-24T21:51:35.253Z,92.93
2022-10-24T21:54:08.636Z,92.87
2022-10-24T21:56:36.787Z,94.44
2022-10-24T21:59:06.508Z,94.94
2022-10-24T22:01:36.357Z,95.87
2022-10-24T22:04:04.772Z,96.48
2022-10-24T22:06:33.783Z,96.33
2022-10-24T22:09:01.808Z,96.90
2022-10-24T22:11:30.606Z,96.90
2022-10-24T22:13:58.647Z,96.82
2022-10-24T22:16:28.311Z,96.79
2022-10-24T22:18:57.024Z,96.86
2022-10-24T22:21:27.472Z,96.54
2022-10-24T22:23:56.880Z,96.59
2022-10-24T22:26:25.415Z,96.95
2022-10-24T22:28:55.749Z,94.91
2022-10-24T22:31:25.348Z,96.07
2022-10-24T22:33:53.672Z,95.68
2022-10-24T22:36:43.015Z,94.06
2022-10-24T22:39:16.216Z,93.90
2022-10-24T22:41:44.833Z,93.45
2022-10-24T22:44:14.476Z,94.13
2022-10-24T22:47:07.745Z,93.74
2022-10-24T22:49:47.126Z,94.00
2022-10-24T22:52:14.561Z,91.50
2022-10-24T22:54:42.001Z,92.53
2022-10-24T22:57:09.541Z,92.90
2022-10-24T22:59:37.393Z,93.31
2022-10-24T23:02:33.551Z,92.90
2022-10-24T23:05:06.191Z,93.92
2022-10-24T23:07:47.792Z,95.18
2022-10-24T23:10:20.742Z,94.62
2022-10-24T23:12:48.681Z,94.40
2022-10-24T23:15:16.776Z,93.81
2022-10-24T23:17:44.974Z,93.62
2022-10-24T23:20:19.349Z,93.42
2022-10-24T23:22:54.311Z,93.95
2022-10-24T23:25:30.501Z,94.26
2022-10-24T23:28:07.127Z,95.17
2022-10-24T23:30:35.619Z,95.47
2022-10-24T23:33:02.781Z,95.03
2022-10-24T23:35:30.029Z,95.37
2022-10-24T23:37:57.140Z,95.32
2022-10-24T23:40:30.218Z,95.49
2022-10-24T23:42:57.398Z,95.63
2022-10-24T23:45:26.164Z,95.67
2022-10-24T23:48:03.586Z,95.89
2022-10-24T23:50:45.911Z,95.65
2022-10-24T23:53:16.139Z,95.15
2022-10-24T23:55:43.474Z,95.91
2022-10-24T23:58:11.132Z,96.18
